Time,TemperatureF,DewpointF,PressureIn,WindDirection,WindDirectionDegrees,WindSpeedMPH,WindSpeedGustMPH,Humidity,HourlyPrecipIn,Conditions,Clouds,dailyrainin,SoftwareType,DateUTC
2013-08-12 00:02:00,72.0,69.2,29.99,South,170,0.0,0.0,91,0.00,,,0.00,WUHU216DAVISVP2,2013-08-12 04:02:00,
2013-08-12 00:07:00,72.0,69.2,29.99,South,170,0.0,0.0,91,0.00,,,0.00,WUHU216DAVISVP2,2013-08-12 04:07:00,
2013-08-12 00:12:00,72.0,69.2,29.99,South,170,0.0,0.0,91,0.00,,,0.00,WUHU216DAVISVP2,2013-08-12 04:12:00,
2013-08-12 00:17:00,72.0,69.2,29.99,South,170,0.0,0.0,91,0.00,,,0.00,WUHU216DAVISVP2,2013-08-12 04:17:00,
2013-08-12 00:22:00,72.1,69.3,29.98,South,170,0.0,0.0,91,0.00,,,0.00,WUHU216DAVISVP2,2013-08-12 04:22:00,
2013-08-12 00:27:00,72.1,69.3,29.99,South,170,0.0,0.0,91,0.00,,,0.00,WUHU216DAVISVP2,2013-08-12 04:27:00,
2013-08-12 00:32:00,72.1,69.3,29.99,South,170,0.0,0.0,91,0.00,,,0.00,WUHU216DAVISVP2,2013-08-12 04:32:00,
2013-08-12 00:37:00,72.1,69.3,29.99,South,170,0.0,0.0,91,0.00,,,0.00,WUHU216DAVISVP2,2013-08-12 04:37:00,
2013-08-12 00:42:00,72.1,69.3,29.99,South,170,0.0,0.0,91,0.00,,,0.00,WUHU216DAVISVP2,2013-08-12 04:42:00,
2013-08-12 00:47:00,72.2,69.4,29.99,South,170,0.0,0.0,91,0.00,,,0.00,WUHU216DAVISVP2,2013-08-12 04:47:00,
2013-08-12 00:52:00,72.3,69.5,29.99,South,170,0.0,0.0,91,0.00,,,0.00,WUHU216DAVISVP2,2013-08-12 04:52:00,
2013-08-12 00:57:00,72.4,69.6,29.99,South,170,0.0,0.0,91,0.00,,,0.00,WUHU216DAVISVP2,2013-08-12 04:57:00,
2013-08-12 01:02:00,72.4,69.6,29.99,South,170,0.0,0.0,91,0.00,,,0.00,WUHU216DAVISVP2,2013-08-12 05:02:00,
2013-08-12 01:07:00,72.4,69.6,29.99,South,170,0.0,0.0,91,0.00,,,0.00,WUHU216DAVISVP2,2013-08-12 05:07:00,
2013-08-12 01:12:00,72.5,69.7,29.99,South,170,0.0,0.0,91,0.00,,,0.00,WUHU216DAVISVP2,2013-08-12 05:12:00,
2013-08-12 01:17:00,72.5,69.7,29.99,South,170,0.0,0.0,91,0.00,,,0.00,WUHU216DAVISVP2,2013-08-12 05:17:00,
2013-08-12 01:22:00,72.6,69.8,29.98,South,170,0.0,0.0,91,0.00,,,0.00,WUHU216DAVISVP2,2013-08-12 05:22:00,
2013-08-12 01:27:00,72.6,69.8,29.99,South,170,0.0,0.0,91,0.00,,,0.00,WUHU216DAVISVP2,2013-08-12 05:27:00,
2013-08-12 01:32:00,72.6,69.8,29.99,South,170,0.0,0.0,91,0.00,,,0.00,WUHU216DAVISVP2,2013-08-12 05:32:00,
2013-08-12 01:37:00,72.6,69.8,29.98,South,170,0.0,0.0,91,0.00,,,0.00,WUHU216DAVISVP2,2013-08-12 05:37:00,
2013-08-12 01:42:00,72.6,69.8,29.98,South,170,0.0,0.0,91,0.00,,,0.00,WUHU216DAVISVP2,2013-08-12 05:42:00,
2013-08-12 01:47:00,72.6,69.8,29.98,South,170,0.0,0.0,91,0.00,,,0.00,WUHU216DAVISVP2,2013-08-12 05:47:00,
2013-08-12 01:52:00,72.5,69.7,29.98,South,170,0.0,0.0,91,0.00,,,0.00,WUHU216DAVISVP2,2013-08-12 05:52:00,
2013-08-12 01:57:00,72.5,69.7,29.98,South,170,0.0,0.0,91,0.00,,,0.00,WUHU216DAVISVP2,2013-08-12 05:57:00,
2013-08-12 02:02:00,72.5,69.7,29.98,South,170,0.0,0.0,91,0.00,,,0.00,WUHU216DAVISVP2,2013-08-12 06:02:00,
2013-08-12 02:07:00,72.5,69.7,29.98,South,170,0.0,0.0,91,0.00,,,0.00,WUHU216DAVISVP2,2013-08-12 06:07:00,
2013-08-12 02:12:00,72.5,69.7,29.98,South,170,0.0,0.0,91,0.00,,,0.00,WUHU216DAVISVP2,2013-08-12 06:12:00,
2013-08-12 02:17:00,72.4,69.9,29.98,South,170,0.0,0.0,92,0.00,,,0.00,WUHU216DAVISVP2,2013-08-12 06:17:00,
2013-08-12 02:22:00,72.4,69.9,29.97,South,170,0.0,0.0,92,0.00,,,0.00,WUHU216DAVISVP2,2013-08-12 06:22:00,
2013-08-12 02:27:00,72.8,70.9,29.97,SW,214,0.0,1.0,94,0.00,,,0.00,WUHU216DAVISVP2,2013-08-12 06:27:00,
2013-08-12 02:32:00,72.9,71.0,29.97,SW,214,0.0,1.0,94,0.00,,,0.00,WUHU216DAVISVP2,2013-08-12 06:32:00,
2013-08-12 02:37:00,72.8,71.0,29.97,SW,214,0.0,1.0,94,0.00,,,0.00,WUHU216DAVISVP2,2013-08-12 06:37:00,
2013-08-12 02:42:00,72.8,70.9,29.96,SW,214,0.0,1.0,94,0.00,,,0.00,WUHU216DAVISVP2,2013-08-12 06:42:00,
2013-08-12 02:47:00,72.8,70.9,29.96,SW,214,0.0,1.0,94,0.00,,,0.00,WUHU216DAVISVP2,2013-08-12 06:47:00,
2013-08-12 02:52:00,72.8,70.9,29.96,SW,214,0.0,0.0,94,0.00,,,0.00,WUHU216DAVISVP2,2013-08-12 06:52:00,
2013-08-12 02:57:00,72.6,70.8,29.96,SW,214,0.0,0.0,94,0.00,,,0.00,WUHU216DAVISVP2,2013-08-12 06:57:00,
2013-08-12 03:02:00,72.5,70.7,29.96,SW,214,0.0,0.0,94,0.00,,,0.00,WUHU216DAVISVP2,2013-08-12 07:02:00,
2013-08-12 03:07:00,72.3,70.8,29.95,SW,214,0.0,0.0,95,0.00,,,0.00,WUHU216DAVISVP2,2013-08-12 07:07:00,
2013-08-12 03:12:00,72.3,70.8,29.96,SW,214,0.0,0.0,95,0.00,,,0.00,WUHU216DAVISVP2,2013-08-12 07:12:00,
2013-08-12 03:17:00,72.2,70.7,29.96,SW,214,0.0,0.0,95,0.00,,,0.00,WUHU216DAVISVP2,2013-08-12 07:17:00,
2013-08-12 03:22:00,72.2,70.7,29.95,SW,214,0.0,0.0,95,0.00,,,0.00,WUHU216DAVISVP2,2013-08-12 07:22:00,
2013-08-12 03:27:00,72.1,70.6,29.95,SW,214,0.0,0.0,95,0.00,,,0.00,WUHU216DAVISVP2,2013-08-12 07:27:00,
2013-08-12 03:32:00,72.0,70.5,29.95,SW,214,0.0,0.0,95,0.00,,,0.00,WUHU216DAVISVP2,2013-08-12 07:32:00,
2013-08-12 03:37:00,71.9,70.4,29.95,SW,214,0.0,0.0,95,0.00,,,0.00,WUHU216DAVISVP2,2013-08-12 07:37:00,
2013-08-12 03:42:00,71.8,70.3,29.95,SW,214,0.0,0.0,95,0.00,,,0.00,WUHU216DAVISVP2,2013-08-12 07:42:00,
2013-08-12 03:47:00,71.7,70.2,29.95,SW,214,0.0,0.0,95,0.00,,,0.00,WUHU216DAVISVP2,2013-08-12 07:47:00,
2013-08-12 03:52:00,71.6,70.4,29.95,SW,214,0.0,0.0,96,0.00,,,0.00,WUHU216DAVISVP2,2013-08-12 07:52:00,
2013-08-12 03:57:00,71.6,70.4,29.95,SW,214,0.0,0.0,96,0.00,,,0.00,WUHU216DAVISVP2,2013-08-12 07:57:00,
2013-08-12 04:02:00,71.5,70.0,29.95,SW,214,0.0,0.0,95,0.00,,,0.00,WUHU216DAVISVP2,2013-08-12 08:02:00,
2013-08-12 04:07:00,71.5,70.3,29.95,SW,214,0.0,0.0,96,0.00,,,0.00,WUHU216DAVISVP2,2013-08-12 08:07:00,
2013-08-12 04:12:00,71.5,70.3,29.95,SW,214,0.0,0.0,96,0.00,,,0.00,WUHU216DAVISVP2,2013-08-12 08:12:00,
2013-08-12 04:17:00,71.5,70.3,29.95,SW,214,0.0,0.0,96,0.00,,,0.00,WUHU216DAVISVP2,2013-08-12 08:17:00,
2013-08-12 04:22:00,71.5,70.3,29.96,SW,214,0.0,0.0,96,0.00,,,0.00,WUHU216DAVISVP2,2013-08-12 08:22:00,
2013-08-12 04:27:00,71.5,70.3,29.95,SW,214,0.0,0.0,96,0.00,,,0.00,WUHU216DAVISVP2,2013-08-12 08:27:00,
2013-08-12 04:32:00,71.5,70.3,29.95,SW,214,0.0,0.0,96,0.00,,,0.00,WUHU216DAVISVP2,2013-08-12 08:32:00,
2013-08-12 04:38:00,71.4,70.2,29.95,SW,214,0.0,0.0,96,0.00,,,0.00,WUHU216DAVISVP2,2013-08-12 08:38:00,
2013-08-12 04:43:00,71.4,70.2,29.95,SW,214,0.0,0.0,96,0.00,,,0.00,WUHU216DAVISVP2,2013-08-12 08:43:00,
2013-08-12 04:48:00,71.2,70.0,29.95,SW,214,0.0,0.0,96,0.00,,,0.00,WUHU216DAVISVP2,2013-08-12 08:48:00,
2013-08-12 04:53:00,71.1,69.9,29.95,SW,214,0.0,0.0,96,0.00,,,0.00,WUHU216DAVISVP2,2013-08-12 08:53:00,
2013-08-12 04:58:00,71.0,69.8,29.95,SW,214,0.0,0.0,96,0.00,,,0.00,WUHU216DAVISVP2,2013-08-12 08:58:00,
2013-08-12 05:03:00,70.9,69.7,29.95,SW,214,0.0,0.0,96,0.00,,,0.00,WUHU216DAVISVP2,2013-08-12 09:03:00,
2013-08-12 05:08:00,70.8,69.6,29.95,SW,214,0.0,0.0,96,0.00,,,0.00,WUHU216DAVISVP2,2013-08-12 09:08:00,
2013-08-12 05:13:00,70.7,69.5,29.95,SW,214,0.0,0.0,96,0.00,,,0.00,WUHU216DAVISVP2,2013-08-12 09:13:00,
2013-08-12 05:18:00,70.6,69.4,29.95,SW,214,0.0,0.0,96,0.00,,,0.00,WUHU216DAVISVP2,2013-08-12 09:18:00,
2013-08-12 05:23:00,70.6,69.4,29.95,SW,214,0.0,0.0,96,0.00,,,0.00,WUHU216DAVISVP2,2013-08-12 09:23:00,
2013-08-12 05:28:00,70.6,69.4,29.95,SW,214,0.0,0.0,96,0.00,,,0.00,WUHU216DAVISVP2,2013-08-12 09:28:00,
2013-08-12 05:33:00,70.7,69.8,29.95,SW,214,0.0,0.0,97,0.00,,,0.00,WUHU216DAVISVP2,2013-08-12 09:33:00,
2013-08-12 05:38:00,70.7,69.8,29.95,SW,214,0.0,0.0,97,0.00,,,0.00,WUHU216DAVISVP2,2013-08-12 09:38:00,
2013-08-12 05:43:00,70.7,69.8,29.95,SW,214,0.0,0.0,97,0.00,,,0.00,WUHU216DAVISVP2,2013-08-12 09:43:00,
2013-08-12 05:48:00,70.6,69.7,29.95,SW,214,0.0,0.0,97,0.00,,,0.00,WUHU216DAVISVP2,2013-08-12 09:48:00,
2013-08-12 05:53:00,70.5,69.6,29.95,SW,214,0.0,0.0,97,0.00,,,0.00,WUHU216DAVISVP2,2013-08-12 09:53:00,
2013-08-12 05:58:00,70.6,69.7,29.95,SW,214,0.0,0.0,97,0.00,,,0.00,WUHU216DAVISVP2,2013-08-12 09:58:00,
2013-08-12 06:03:00,70.6,69.7,29.95,SW,214,0.0,0.0,97,0.00,,,0.00,WUHU216DAVISVP2,2013-08-12 10:03:00,
2013-08-12 06:08:00,70.6,69.7,29.95,SW,214,0.0,0.0,97,0.00,,,0.00,WUHU216DAVISVP2,2013-08-12 10:08:00,
2013-08-12 06:13:00,70.5,69.6,29.95,SW,214,0.0,0.0,97,0.00,,,0.00,WUHU216DAVISVP2,2013-08-12 10:13:00,
2013-08-12 06:18:00,70.4,69.5,29.95,SW,214,0.0,0.0,97,0.00,,,0.00,WUHU216DAVISVP2,2013-08-12 10:18:00,
2013-08-12 06:23:00,70.3,69.4,29.95,SW,214,0.0,0.0,97,0.00,,,0.00,WUHU216DAVISVP2,2013-08-12 10:23:00,
2013-08-12 06:28:00,70.4,69.5,29.96,SW,214,0.0,0.0,97,0.00,,,0.00,WUHU216DAVISVP2,2013-08-12 10:28:00,
2013-08-12 06:38:00,70.3,69.4,29.96,SW,214,0.0,0.0,97,0.00,,,0.00,WUHU216DAVISVP2,2013-08-12 10:38:00,
2013-08-12 06:43:00,70.3,69.4,29.96,SW,214,0.0,0.0,97,0.00,,,0.00,WUHU216DAVISVP2,2013-08-12 10:43:00,
2013-08-12 06:48:00,70.3,69.4,29.96,SW,214,0.0,0.0,97,0.00,,,0.00,WUHU216DAVISVP2,2013-08-12 10:48:00,
2013-08-12 06:53:00,70.3,69.4,29.96,SW,214,0.0,0.0,97,0.00,,,0.00,WUHU216DAVISVP2,2013-08-12 10:53:00,
2013-08-12 06:58:00,70.4,69.8,29.96,SW,214,0.0,0.0,98,0.00,,,0.00,WUHU216DAVISVP2,2013-08-12 10:58:00,
2013-08-12 07:03:00,70.6,70.0,29.96,SW,214,0.0,0.0,98,0.00,,,0.00,WUHU216DAVISVP2,2013-08-12 11:03:00,
2013-08-12 07:08:00,70.8,70.2,29.96,SW,214,0.0,0.0,98,0.00,,,0.00,WUHU216DAVISVP2,2013-08-12 11:08:00,
2013-08-12 07:13:00,71.0,70.4,29.96,SW,214,0.0,0.0,98,0.00,,,0.00,WUHU216DAVISVP2,2013-08-12 11:13:00,
2013-08-12 07:18:00,71.1,70.5,29.96,SW,214,0.0,0.0,98,0.00,,,0.00,WUHU216DAVISVP2,2013-08-12 11:18:00,
2013-08-12 07:23:00,71.1,70.5,29.96,SW,214,0.0,0.0,98,0.00,,,0.00,WUHU216DAVISVP2,2013-08-12 11:23:00,
2013-08-12 07:28:00,71.2,70.6,29.96,SW,214,0.0,0.0,98,0.00,,,0.00,WUHU216DAVISVP2,2013-08-12 11:28:00,
2013-08-12 07:33:00,71.4,70.8,29.96,SW,214,0.0,0.0,98,0.00,,,0.00,WUHU216DAVISVP2,2013-08-12 11:33:00,
2013-08-12 07:38:00,71.7,71.1,29.96,SW,214,0.0,0.0,98,0.00,,,0.00,WUHU216DAVISVP2,2013-08-12 11:38:00,
2013-08-12 07:43:00,71.9,71.3,29.96,SW,214,0.0,0.0,98,0.00,,,0.00,WUHU216DAVISVP2,2013-08-12 11:43:00,
2013-08-12 07:48:00,72.2,71.6,29.96,SW,214,0.0,1.0,98,0.00,,,0.00,WUHU216DAVISVP2,2013-08-12 11:48:00,
2013-08-12 07:53:00,72.4,71.8,29.96,SW,214,0.0,1.0,98,0.00,,,0.00,WUHU216DAVISVP2,2013-08-12 11:53:00,
2013-08-12 07:58:00,72.5,71.9,29.96,SW,214,0.0,1.0,98,0.00,,,0.00,WUHU216DAVISVP2,2013-08-12 11:58:00,
2013-08-12 08:03:00,72.7,71.8,29.96,SW,217,0.0,1.0,97,0.00,,,0.00,WUHU216DAVISVP2,2013-08-12 12:03:00,
2013-08-12 08:08:00,73.1,72.2,29.96,WSW,237,0.0,1.0,97,0.00,,,0.00,WUHU216DAVISVP2,2013-08-12 12:08:00,
2013-08-12 08:13:00,73.5,72.3,29.96,WSW,249,1.0,2.0,96,0.00,,,0.00,WUHU216DAVISVP2,2013-08-12 12:13:00,
2013-08-12 08:18:00,73.8,72.2,29.96,North,349,0.0,3.0,95,0.00,,,0.00,WUHU216DAVISVP2,2013-08-12 12:18:00,
2013-08-12 08:23:00,74.1,72.3,29.96,North,349,0.0,3.0,94,0.00,,,0.00,WUHU216DAVISVP2,2013-08-12 12:23:00,
2013-08-12 08:28:00,74.4,72.6,29.96,North,349,0.0,3.0,94,0.00,,,0.00,WUHU216DAVISVP2,2013-08-12 12:28:00,
2013-08-12 08:33:00,74.8,72.6,29.96,South,184,0.0,2.0,93,0.00,,,0.00,WUHU216DAVISVP2,2013-08-12 12:33:00,
2013-08-12 08:38:00,75.2,72.7,29.96,NNW,337,2.0,2.0,92,0.00,,,0.00,WUHU216DAVISVP2,2013-08-12 12:38:00,
2013-08-12 08:43:00,75.7,72.9,29.96,NNW,337,0.0,2.0,91,0.00,,,0.00,WUHU216DAVISVP2,2013-08-12 12:43:00,
2013-08-12 08:48:00,76.1,72.9,29.96,NW,307,0.0,3.0,90,0.00,,,0.00,WUHU216DAVISVP2,2013-08-12 12:48:00,
2013-08-12 08:53:00,76.4,73.2,29.96,SE,145,0.0,3.0,90,0.00,,,0.00,WUHU216DAVISVP2,2013-08-12 12:53:00,
2013-08-12 08:58:00,76.9,73.4,29.96,WNW,303,2.0,4.0,89,0.00,,,0.00,WUHU216DAVISVP2,2013-08-12 12:58:00,
2013-08-12 09:03:00,77.1,73.0,29.95,NNW,330,2.0,5.0,87,0.00,,,0.00,WUHU216DAVISVP2,2013-08-12 13:03:00,
2013-08-12 09:08:00,77.3,73.1,29.96,WNW,295,1.0,5.0,87,0.00,,,0.00,WUHU216DAVISVP2,2013-08-12 13:08:00,
2013-08-12 09:13:00,77.3,72.8,29.96,NNE,12,1.0,5.0,86,0.00,,,0.00,WUHU216DAVISVP2,2013-08-12 13:13:00,
2013-08-12 09:18:00,77.6,73.4,29.96,NW,314,0.0,5.0,87,0.00,,,0.00,WUHU216DAVISVP2,2013-08-12 13:18:00,
2013-08-12 09:23:00,77.8,73.0,29.96,NW,323,1.0,4.0,85,0.00,,,0.00,WUHU216DAVISVP2,2013-08-12 13:23:00,
2013-08-12 09:28:00,78.0,73.2,29.96,NNW,335,1.0,5.0,85,0.00,,,0.00,WUHU216DAVISVP2,2013-08-12 13:28:00,
2013-08-12 09:33:00,78.1,73.3,29.96,NW,315,1.0,5.0,85,0.00,,,0.00,WUHU216DAVISVP2,2013-08-12 13:33:00,
2013-08-12 09:38:00,78.2,73.7,29.96,NNW,345,0.0,5.0,86,0.00,,,0.00,WUHU216DAVISVP2,2013-08-12 13:38:00,
2013-08-12 09:43:00,78.8,74.0,29.96,West,280,0.0,5.0,85,0.00,,,0.00,WUHU216DAVISVP2,2013-08-12 13:43:00,
2013-08-12 09:48:00,79.6,74.4,29.96,NW,312,0.0,3.0,84,0.00,,,0.00,WUHU216DAVISVP2,2013-08-12 13:48:00,
2013-08-12 09:53:00,80.0,74.1,29.96,North,8,3.0,3.0,82,0.00,,,0.00,WUHU216DAVISVP2,2013-08-12 13:53:00,
2013-08-12 09:58:00,79.6,73.4,29.96,North,354,3.0,4.0,81,0.00,,,0.00,WUHU216DAVISVP2,2013-08-12 13:58:00,
2013-08-12 10:03:00,79.5,73.3,29.96,WNW,294,3.0,7.0,81,0.00,,,0.00,WUHU216DAVISVP2,2013-08-12 14:03:00,
2013-08-12 10:08:00,79.3,73.0,29.96,NNW,332,3.0,7.0,81,0.00,,,0.00,WUHU216DAVISVP2,2013-08-12 14:08:00,
2013-08-12 10:13:00,79.2,73.2,29.96,NNE,19,0.0,7.0,82,0.00,,,0.00,WUHU216DAVISVP2,2013-08-12 14:13:00,
2013-08-12 10:18:00,79.6,73.4,29.96,WNW,302,2.0,7.0,81,0.00,,,0.00,WUHU216DAVISVP2,2013-08-12 14:18:00,
2013-08-12 10:23:00,79.6,73.6,29.96,NW,311,1.0,7.0,82,0.00,,,0.00,WUHU216DAVISVP2,2013-08-12 14:23:00,
2013-08-12 10:28:00,79.6,73.7,29.96,North,354,3.0,6.0,82,0.00,,,0.00,WUHU216DAVISVP2,2013-08-12 14:28:00,
2013-08-12 10:33:00,79.8,73.1,29.96,NNW,327,4.0,6.0,80,0.00,,,0.00,WUHU216DAVISVP2,2013-08-12 14:33:00,
2013-08-12 10:38:00,80.2,73.5,29.96,NW,305,2.0,6.0,80,0.00,,,0.00,WUHU216DAVISVP2,2013-08-12 14:38:00,
2013-08-12 10:43:00,80.5,73.5,29.96,NNE,31,2.0,4.0,79,0.00,,,0.00,WUHU216DAVISVP2,2013-08-12 14:43:00,
2013-08-12 10:48:00,81.1,74.0,29.96,NE,35,0.0,4.0,79,0.00,,,0.00,WUHU216DAVISVP2,2013-08-12 14:48:00,
2013-08-12 10:53:00,81.8,74.3,29.96,SSE,152,0.0,4.0,78,0.00,,,0.00,WUHU216DAVISVP2,2013-08-12 14:53:00,
2013-08-12 10:58:00,82.5,74.3,29.96,East,81,1.0,4.0,76,0.00,,,0.00,WUHU216DAVISVP2,2013-08-12 14:58:00,
2013-08-12 11:03:00,82.0,73.7,29.96,WNW,301,0.0,4.0,76,0.00,,,0.00,WUHU216DAVISVP2,2013-08-12 15:03:00,
2013-08-12 11:08:00,82.5,74.0,29.96,North,349,1.0,4.0,75,0.00,,,0.00,WUHU216DAVISVP2,2013-08-12 15:08:00,
2013-08-12 11:13:00,82.7,74.2,29.96,NNE,28,0.0,4.0,75,0.00,,,0.00,WUHU216DAVISVP2,2013-08-12 15:13:00,
2013-08-12 11:18:00,82.5,74.0,29.96,NNE,15,2.0,4.0,75,0.00,,,0.00,WUHU216DAVISVP2,2013-08-12 15:18:00,
2013-08-12 11:23:00,82.5,73.4,29.96,NNE,27,1.0,3.0,74,0.00,,,0.00,WUHU216DAVISVP2,2013-08-12 15:23:00,
2013-08-12 11:28:00,82.3,73.6,29.95,North,8,2.0,3.0,75,0.00,,,0.00,WUHU216DAVISVP2,2013-08-12 15:28:00,
2013-08-12 11:33:00,82.3,73.8,29.95,NE,37,1.0,3.0,75,0.00,,,0.00,WUHU216DAVISVP2,2013-08-12 15:33:00,
2013-08-12 11:38:00,82.3,73.6,29.95,ENE,58,0.0,3.0,75,0.00,,,0.00,WUHU216DAVISVP2,2013-08-12 15:38:00,
2013-08-12 11:43:00,82.7,73.6,29.96,NE,46,0.0,4.0,74,0.00,,,0.00,WUHU216DAVISVP2,2013-08-12 15:43:00,
2013-08-12 11:48:00,83.0,73.7,29.95,NNE,21,0.0,4.0,73,0.00,,,0.00,WUHU216DAVISVP2,2013-08-12 15:48:00,
2013-08-12 11:53:00,83.0,73.7,29.96,NNE,21,0.0,4.0,73,0.00,,,0.00,WUHU216DAVISVP2,2013-08-12 15:53:00,
2013-08-12 11:58:00,83.3,72.5,29.95,NNW,327,3.0,4.0,70,0.00,,,0.00,WUHU216DAVISVP2,2013-08-12 15:58:00,
2013-08-12 12:03:00,82.8,73.5,29.95,NW,314,1.0,4.0,73,0.00,,,0.00,WUHU216DAVISVP2,2013-08-12 16:03:00,
2013-08-12 12:08:00,82.5,73.2,29.95,NNW,332,1.0,4.0,73,0.00,,,0.00,WUHU216DAVISVP2,2013-08-12 16:08:00,
2013-08-12 12:13:00,82.9,73.2,29.95,NNE,18,1.0,4.0,72,0.00,,,0.00,WUHU216DAVISVP2,2013-08-12 16:13:00,
2013-08-12 12:18:00,83.5,73.3,29.95,NE,39,1.0,4.0,71,0.00,,,0.00,WUHU216DAVISVP2,2013-08-12 16:18:00,
2013-08-12 12:23:00,84.1,72.4,29.95,NE,39,0.0,3.0,68,0.00,,,0.00,WUHU216DAVISVP2,2013-08-12 16:23:00,
2013-08-12 12:28:00,85.1,73.8,29.95,North,9,1.0,2.0,69,0.00,,,0.00,WUHU216DAVISVP2,2013-08-12 16:28:00,
2013-08-12 12:33:00,85.8,73.4,29.95,North,4,0.0,3.0,66,0.00,,,0.00,WUHU216DAVISVP2,2013-08-12 16:33:00,
2013-08-12 12:38:00,85.7,74.2,29.95,WSW,257,1.0,3.0,68,0.00,,,0.00,WUHU216DAVISVP2,2013-08-12 16:38:00,
2013-08-12 12:43:00,85.4,75.2,29.95,NNW,332,0.0,4.0,71,0.00,,,0.00,WUHU216DAVISVP2,2013-08-12 16:43:00,
2013-08-12 12:48:00,86.3,75.4,29.94,NNE,14,1.0,4.0,70,0.00,,,0.00,WUHU216DAVISVP2,2013-08-12 16:48:00,
2013-08-12 12:53:00,86.8,74.8,29.95,ESE,108,0.0,4.0,67,0.00,,,0.00,WUHU216DAVISVP2,2013-08-12 16:53:00,
2013-08-12 12:58:00,86.8,74.8,29.95,ESE,108,0.0,3.0,67,0.00,,,0.00,WUHU216DAVISVP2,2013-08-12 16:58:00,
2013-08-12 13:03:00,86.5,75.0,29.95,East,95,1.0,3.0,68,0.00,,,0.00,WUHU216DAVISVP2,2013-08-12 17:03:00,
2013-08-12 13:08:00,86.3,75.2,29.94,ENE,64,1.0,3.0,69,0.00,,,0.00,WUHU216DAVISVP2,2013-08-12 17:08:00,
2013-08-12 13:13:00,86.4,75.3,29.94,ENE,71,0.0,3.0,69,0.00,,,0.00,WUHU216DAVISVP2,2013-08-12 17:13:00,
2013-08-12 13:18:00,86.7,75.1,29.94,ENE,71,0.0,3.0,68,0.00,,,0.00,WUHU216DAVISVP2,2013-08-12 17:18:00,
2013-08-12 13:23:00,86.7,75.6,29.94,ENE,71,0.0,3.0,69,0.00,,,0.00,WUHU216DAVISVP2,2013-08-12 17:23:00,
2013-08-12 13:28:00,86.5,75.1,29.94,NE,50,3.0,4.0,69,0.00,,,0.00,WUHU216DAVISVP2,2013-08-12 17:28:00,
2013-08-12 13:33:00,86.1,74.6,29.95,ENE,74,0.0,4.0,68,0.00,,,0.00,WUHU216DAVISVP2,2013-08-12 17:33:00,
2013-08-12 13:38:00,86.0,75.3,29.94,ENE,69,1.0,4.0,70,0.00,,,0.00,WUHU216DAVISVP2,2013-08-12 17:38:00,
2013-08-12 13:43:00,85.7,75.5,29.94,NE,47,2.0,5.0,71,0.00,,,0.00,WUHU216DAVISVP2,2013-08-12 17:43:00,
2013-08-12 13:48:00,85.0,75.2,29.94,NE,48,2.0,5.0,72,0.00,,,0.00,WUHU216DAVISVP2,2013-08-12 17:48:00,
2013-08-12 13:53:00,84.5,75.1,29.94,NE,38,1.0,5.0,73,0.00,,,0.00,WUHU216DAVISVP2,2013-08-12 17:53:00,
2013-08-12 13:58:00,84.6,75.6,29.94,NE,36,0.0,5.0,74,0.00,,,0.00,WUHU216DAVISVP2,2013-08-12 17:58:00,
2013-08-12 14:03:00,84.9,75.1,29.94,WSW,258,0.0,4.0,72,0.00,,,0.00,WUHU216DAVISVP2,2013-08-12 18:03:00,
2013-08-12 14:08:00,84.8,74.6,29.94,ENE,68,0.0,4.0,71,0.00,,,0.00,WUHU216DAVISVP2,2013-08-12 18:08:00,
2013-08-12 14:13:00,85.0,75.0,29.94,East,79,0.0,4.0,72,0.00,,,0.00,WUHU216DAVISVP2,2013-08-12 18:13:00,
2013-08-12 14:18:00,85.2,75.1,29.94,NNE,25,0.0,4.0,72,0.00,,,0.00,WUHU216DAVISVP2,2013-08-12 18:18:00,
2013-08-12 14:23:00,85.8,76.0,29.94,NNE,12,0.0,4.0,72,0.00,,,0.00,WUHU216DAVISVP2,2013-08-12 18:23:00,
2013-08-12 14:28:00,86.3,75.2,29.94,East,86,0.0,3.0,69,0.00,,,0.00,WUHU216DAVISVP2,2013-08-12 18:28:00,
2013-08-12 14:33:00,86.4,75.3,29.94,NE,50,0.0,3.0,69,0.00,,,0.00,WUHU216DAVISVP2,2013-08-12 18:33:00,
2013-08-12 14:38:00,86.6,75.5,29.94,ENE,60,1.0,4.0,69,0.00,,,0.00,WUHU216DAVISVP2,2013-08-12 18:38:00,
2013-08-12 14:43:00,86.8,75.7,29.94,ENE,70,0.0,4.0,69,0.00,,,0.00,WUHU216DAVISVP2,2013-08-12 18:43:00,
2013-08-12 14:48:00,87.1,75.5,29.93,ENE,70,0.0,4.0,68,0.00,,,0.00,WUHU216DAVISVP2,2013-08-12 18:48:00,
2013-08-12 14:53:00,87.2,75.2,29.93,ENE,71,3.0,4.0,67,0.00,,,0.00,WUHU216DAVISVP2,2013-08-12 18:53:00,
2013-08-12 14:58:00,86.9,74.5,29.93,NNE,21,0.0,3.0,66,0.00,,,0.00,WUHU216DAVISVP2,2013-08-12 18:58:00,
2013-08-12 15:04:00,87.3,75.3,29.93,NE,50,0.0,3.0,67,0.00,,,0.00,WUHU216DAVISVP2,2013-08-12 19:04:00,
2013-08-12 15:09:00,87.7,75.2,29.93,NE,49,0.0,3.0,66,0.00,,,0.00,WUHU216DAVISVP2,2013-08-12 19:09:00,
2013-08-12 15:14:00,88.8,75.3,29.93,North,9,0.0,3.0,64,0.00,,,0.00,WUHU216DAVISVP2,2013-08-12 19:14:00,
2013-08-12 15:19:00,89.7,75.3,29.93,North,10,0.0,3.0,62,0.00,,,0.00,WUHU216DAVISVP2,2013-08-12 19:19:00,
2013-08-12 15:24:00,89.6,74.7,29.92,ESE,120,1.0,3.0,61,0.00,,,0.00,WUHU216DAVISVP2,2013-08-12 19:24:00,
2013-08-12 15:29:00,88.9,74.5,29.92,East,91,0.0,3.0,62,0.00,,,0.00,WUHU216DAVISVP2,2013-08-12 19:29:00,
2013-08-12 15:34:00,88.4,74.0,29.92,SSE,149,1.0,4.0,62,0.00,,,0.00,WUHU216DAVISVP2,2013-08-12 19:34:00,
2013-08-12 15:39:00,86.8,73.0,29.92,SSE,149,0.0,4.0,63,0.00,,,0.00,WUHU216DAVISVP2,2013-08-12 19:39:00,
2013-08-12 15:44:00,86.2,72.6,29.92,SSE,149,0.0,4.0,64,0.00,,,0.00,WUHU216DAVISVP2,2013-08-12 19:44:00,
2013-08-12 15:49:00,86.5,73.8,29.92,SSE,149,0.0,4.0,66,0.00,,,0.00,WUHU216DAVISVP2,2013-08-12 19:49:00,
2013-08-12 15:54:00,86.6,73.4,29.92,SSE,149,0.0,4.0,65,0.00,,,0.00,WUHU216DAVISVP2,2013-08-12 19:54:00,
2013-08-12 15:59:00,86.5,73.8,29.91,East,96,0.0,2.0,66,0.00,,,0.00,WUHU216DAVISVP2,2013-08-12 19:59:00,
2013-08-12 16:04:00,86.4,73.7,29.91,WSW,245,1.0,2.0,66,0.00,,,0.00,WUHU216DAVISVP2,2013-08-12 20:04:00,
2013-08-12 16:09:00,86.3,73.9,29.91,East,98,0.0,3.0,66,0.00,,,0.00,WUHU216DAVISVP2,2013-08-12 20:09:00,
2013-08-12 16:14:00,85.9,74.4,29.91,NE,35,0.0,3.0,68,0.00,,,0.00,WUHU216DAVISVP2,2013-08-12 20:14:00,
2013-08-12 16:19:00,85.6,74.5,29.91,NE,35,0.0,3.0,69,0.00,,,0.00,WUHU216DAVISVP2,2013-08-12 20:19:00,
2013-08-12 16:24:00,85.1,74.5,29.91,ENE,62,0.0,3.0,70,0.00,,,0.00,WUHU216DAVISVP2,2013-08-12 20:24:00,
2013-08-12 16:29:00,84.6,74.0,29.91,ENE,62,0.0,2.0,70,0.00,,,0.00,WUHU216DAVISVP2,2013-08-12 20:29:00,
2013-08-12 16:34:00,84.3,73.3,29.91,ENE,62,0.0,2.0,69,0.00,,,0.00,WUHU216DAVISVP2,2013-08-12 20:34:00,
2013-08-12 16:39:00,84.1,73.1,29.91,ENE,62,0.0,2.0,69,0.00,,,0.00,WUHU216DAVISVP2,2013-08-12 20:39:00,
2013-08-12 16:44:00,83.8,73.6,29.91,ENE,62,0.0,1.0,71,0.00,,,0.00,WUHU216DAVISVP2,2013-08-12 20:44:00,
2013-08-12 16:49:00,83.7,73.5,29.91,ENE,62,0.0,1.0,71,0.00,,,0.00,WUHU216DAVISVP2,2013-08-12 20:49:00,
2013-08-12 16:54:00,84.0,73.4,29.91,ESE,114,2.0,2.0,70,0.00,,,0.00,WUHU216DAVISVP2,2013-08-12 20:54:00,
2013-08-12 16:59:00,84.3,73.3,29.91,ESE,113,1.0,2.0,69,0.00,,,0.00,WUHU216DAVISVP2,2013-08-12 20:59:00,
2013-08-12 17:04:00,84.4,73.4,29.91,ESE,120,1.0,2.0,69,0.00,,,0.00,WUHU216DAVISVP2,2013-08-12 21:04:00,
2013-08-12 17:09:00,84.3,73.3,29.91,SE,141,0.0,4.0,69,0.00,,,0.00,WUHU216DAVISVP2,2013-08-12 21:09:00,
2013-08-12 17:14:00,84.2,73.6,29.91,SE,141,0.0,4.0,70,0.00,,,0.00,WUHU216DAVISVP2,2013-08-12 21:14:00,
2013-08-12 17:19:00,84.2,74.0,29.91,SE,127,0.0,4.0,71,0.00,,,0.00,WUHU216DAVISVP2,2013-08-12 21:19:00,
2013-08-12 17:24:00,84.2,73.6,29.90,ESE,106,0.0,3.0,70,0.00,,,0.00,WUHU216DAVISVP2,2013-08-12 21:24:00,
2013-08-12 17:29:00,84.1,72.7,29.90,ESE,107,0.0,2.0,68,0.00,,,0.00,WUHU216DAVISVP2,2013-08-12 21:29:00,
2013-08-12 17:34:00,83.9,72.5,29.90,ESE,107,0.0,2.0,68,0.00,,,0.00,WUHU216DAVISVP2,2013-08-12 21:34:00,
2013-08-12 17:39:00,83.9,72.5,29.90,ESE,107,0.0,2.0,68,0.00,,,0.00,WUHU216DAVISVP2,2013-08-12 21:39:00,
2013-08-12 17:44:00,83.9,72.5,29.90,ESE,106,0.0,2.0,68,0.00,,,0.00,WUHU216DAVISVP2,2013-08-12 21:44:00,
2013-08-12 17:49:00,83.8,72.8,29.90,ESE,112,0.0,1.0,69,0.00,,,0.00,WUHU216DAVISVP2,2013-08-12 21:49:00,
2013-08-12 17:54:00,83.8,73.2,29.90,ESE,112,0.0,1.0,70,0.00,,,0.00,WUHU216DAVISVP2,2013-08-12 21:54:00,
2013-08-12 17:59:00,83.7,73.1,29.90,ESE,113,0.0,1.0,70,0.00,,,0.00,WUHU216DAVISVP2,2013-08-12 21:59:00,
2013-08-12 18:04:00,83.7,73.5,29.90,ESE,113,0.0,1.0,71,0.00,,,0.00,WUHU216DAVISVP2,2013-08-12 22:04:00,
2013-08-12 18:09:00,83.8,73.6,29.90,ESE,113,0.0,1.0,71,0.00,,,0.00,WUHU216DAVISVP2,2013-08-12 22:09:00,
2013-08-12 18:14:00,83.9,73.3,29.90,East,81,0.0,1.0,70,0.00,,,0.00,WUHU216DAVISVP2,2013-08-12 22:14:00,
2013-08-12 18:19:00,84.0,73.4,29.90,NE,50,0.0,2.0,70,0.00,,,0.00,WUHU216DAVISVP2,2013-08-12 22:19:00,
2013-08-12 18:24:00,83.9,73.3,29.90,NE,50,0.0,2.0,70,0.00,,,0.00,WUHU216DAVISVP2,2013-08-12 22:24:00,
2013-08-12 18:29:00,83.8,72.8,29.90,NE,50,0.0,2.0,69,0.00,,,0.00,WUHU216DAVISVP2,2013-08-12 22:29:00,
2013-08-12 18:34:00,83.6,73.0,29.90,NE,50,0.0,2.0,70,0.00,,,0.00,WUHU216DAVISVP2,2013-08-12 22:34:00,
2013-08-12 18:39:00,83.4,72.8,29.90,NE,50,0.0,1.0,70,0.00,,,0.00,WUHU216DAVISVP2,2013-08-12 22:39:00,
2013-08-12 18:44:00,83.2,72.2,29.90,NE,50,0.0,1.0,69,0.00,,,0.00,WUHU216DAVISVP2,2013-08-12 22:44:00,
2013-08-12 18:49:00,83.0,72.4,29.90,NE,50,0.0,1.0,70,0.00,,,0.00,WUHU216DAVISVP2,2013-08-12 22:49:00,
2013-08-12 18:54:00,82.9,72.3,29.89,NE,50,0.0,1.0,70,0.00,,,0.00,WUHU216DAVISVP2,2013-08-12 22:54:00,
2013-08-12 18:59:00,82.7,72.2,29.89,NE,50,0.0,1.0,70,0.00,,,0.00,WUHU216DAVISVP2,2013-08-12 22:59:00,
2013-08-12 19:04:00,82.6,72.5,29.89,NE,50,0.0,1.0,71,0.00,,,0.00,WUHU216DAVISVP2,2013-08-12 23:04:00,
2013-08-12 19:09:00,82.5,72.4,29.89,NE,50,0.0,0.0,71,0.00,,,0.00,WUHU216DAVISVP2,2013-08-12 23:09:00,
2013-08-12 19:14:00,82.3,72.2,29.89,NE,50,0.0,0.0,71,0.00,,,0.00,WUHU216DAVISVP2,2013-08-12 23:14:00,
2013-08-12 19:19:00,82.2,72.1,29.90,NE,50,0.0,0.0,71,0.00,,,0.00,WUHU216DAVISVP2,2013-08-12 23:19:00,
2013-08-12 19:24:00,82.1,72.0,29.90,NE,50,0.0,0.0,71,0.00,,,0.00,WUHU216DAVISVP2,2013-08-12 23:24:00,
2013-08-12 19:29:00,82.0,72.3,29.90,NE,50,0.0,0.0,72,0.00,,,0.00,WUHU216DAVISVP2,2013-08-12 23:29:00,
2013-08-12 19:34:00,81.9,72.2,29.90,NE,50,0.0,0.0,72,0.00,,,0.00,WUHU216DAVISVP2,2013-08-12 23:34:00,
2013-08-12 19:39:00,81.8,72.1,29.90,NE,50,0.0,0.0,72,0.00,,,0.00,WUHU216DAVISVP2,2013-08-12 23:39:00,
2013-08-12 19:44:00,81.6,72.3,29.90,NE,50,0.0,0.0,73,0.00,,,0.00,WUHU216DAVISVP2,2013-08-12 23:44:00,
2013-08-12 19:49:00,81.5,72.2,29.90,NE,50,0.0,0.0,73,0.00,,,0.00,WUHU216DAVISVP2,2013-08-12 23:49:00,
2013-08-12 19:54:00,81.3,72.4,29.90,NE,50,0.0,0.0,74,0.00,,,0.00,WUHU216DAVISVP2,2013-08-12 23:54:00,
2013-08-12 19:59:00,81.2,72.3,29.90,NE,50,0.0,0.0,74,0.00,,,0.00,WUHU216DAVISVP2,2013-08-12 23:59:00,
2013-08-12 20:04:00,81.1,72.6,29.90,NE,50,0.0,0.0,75,0.00,,,0.00,WUHU216DAVISVP2,2013-08-13 00:04:00,
2013-08-12 20:09:00,80.9,72.8,29.90,NE,50,0.0,0.0,76,0.00,,,0.00,WUHU216DAVISVP2,2013-08-13 00:09:00,
2013-08-12 20:14:00,80.7,72.6,29.90,NE,50,0.0,0.0,76,0.00,,,0.00,WUHU216DAVISVP2,2013-08-13 00:14:00,
2013-08-12 20:19:00,80.6,72.9,29.89,NE,50,0.0,0.0,77,0.00,,,0.00,WUHU216DAVISVP2,2013-08-13 00:19:00,
2013-08-12 20:24:00,80.5,73.5,29.90,NE,50,0.0,0.0,79,0.00,,,0.00,WUHU216DAVISVP2,2013-08-13 00:24:00,
2013-08-12 20:29:00,80.3,73.3,29.90,NE,50,0.0,0.0,79,0.00,,,0.00,WUHU216DAVISVP2,2013-08-13 00:29:00,
2013-08-12 20:34:00,80.1,73.8,29.90,NE,50,0.0,0.0,81,0.00,,,0.00,WUHU216DAVISVP2,2013-08-13 00:34:00,
2013-08-12 20:39:00,79.9,73.6,29.90,NE,50,0.0,0.0,81,0.00,,,0.00,WUHU216DAVISVP2,2013-08-13 00:39:00,
2013-08-12 20:44:00,79.6,73.4,29.90,NE,50,0.0,0.0,81,0.00,,,0.00,WUHU216DAVISVP2,2013-08-13 00:44:00,
2013-08-12 20:49:00,79.4,73.5,29.90,NE,50,0.0,0.0,82,0.00,,,0.00,WUHU216DAVISVP2,2013-08-13 00:49:00,
2013-08-12 20:54:00,79.2,73.3,29.90,NE,50,0.0,0.0,82,0.00,,,0.00,WUHU216DAVISVP2,2013-08-13 00:54:00,
2013-08-12 20:59:00,79.1,73.6,29.90,NE,50,0.0,0.0,83,0.00,,,0.00,WUHU216DAVISVP2,2013-08-13 00:59:00,
2013-08-12 21:04:00,78.9,73.4,29.90,NE,50,0.0,0.0,83,0.00,,,0.00,WUHU216DAVISVP2,2013-08-13 01:04:00,
2013-08-12 21:09:00,78.8,73.6,29.90,NE,50,0.0,0.0,84,0.00,,,0.00,WUHU216DAVISVP2,2013-08-13 01:09:00,
2013-08-12 21:14:00,78.6,73.4,29.90,NE,50,0.0,0.0,84,0.00,,,0.00,WUHU216DAVISVP2,2013-08-13 01:14:00,
2013-08-12 21:19:00,78.5,73.3,29.90,NE,50,0.0,0.0,84,0.00,,,0.00,WUHU216DAVISVP2,2013-08-13 01:19:00,
2013-08-12 21:24:00,78.4,73.2,29.90,NE,50,0.0,0.0,84,0.00,,,0.00,WUHU216DAVISVP2,2013-08-13 01:24:00,
2013-08-12 21:29:00,78.3,73.4,29.90,NE,50,0.0,0.0,85,0.00,,,0.00,WUHU216DAVISVP2,2013-08-13 01:29:00,
2013-08-12 21:34:00,78.2,73.0,29.91,NE,50,0.0,0.0,84,0.00,,,0.00,WUHU216DAVISVP2,2013-08-13 01:34:00,
2013-08-12 21:39:00,78.1,73.6,29.91,NE,50,0.0,0.0,86,0.00,,,0.00,WUHU216DAVISVP2,2013-08-13 01:39:00,
2013-08-12 21:44:00,78.0,73.2,29.90,NE,50,0.0,0.0,85,0.00,,,0.00,WUHU216DAVISVP2,2013-08-13 01:44:00,
2013-08-12 21:49:00,77.9,73.1,29.90,NE,50,0.0,0.0,85,0.00,,,0.00,WUHU216DAVISVP2,2013-08-13 01:49:00,
2013-08-12 21:54:00,77.8,72.6,29.90,NE,50,0.0,0.0,84,0.00,,,0.00,WUHU216DAVISVP2,2013-08-13 01:54:00,
2013-08-12 21:59:00,77.8,72.6,29.90,NE,50,0.0,1.0,84,0.00,,,0.00,WUHU216DAVISVP2,2013-08-13 01:59:00,
2013-08-12 22:04:00,77.9,72.3,29.91,NE,50,0.0,1.0,83,0.00,,,0.00,WUHU216DAVISVP2,2013-08-13 02:04:00,
2013-08-12 22:09:00,77.9,72.7,29.91,NE,50,0.0,1.0,84,0.00,,,0.00,WUHU216DAVISVP2,2013-08-13 02:09:00,
2013-08-12 22:14:00,77.9,72.7,29.91,NE,50,0.0,1.0,84,0.00,,,0.00,WUHU216DAVISVP2,2013-08-13 02:14:00,
2013-08-12 22:19:00,77.8,72.6,29.91,NE,50,0.0,0.0,84,0.00,,,0.00,WUHU216DAVISVP2,2013-08-13 02:19:00,
2013-08-12 22:24:00,77.8,72.6,29.91,NE,50,0.0,0.0,84,0.00,,,0.00,WUHU216DAVISVP2,2013-08-13 02:24:00,
2013-08-12 22:29:00,77.7,72.5,29.90,NE,50,0.0,0.0,84,0.00,,,0.00,WUHU216DAVISVP2,2013-08-13 02:29:00,
2013-08-12 22:34:00,77.7,72.5,29.90,NE,50,0.0,0.0,84,0.00,,,0.00,WUHU216DAVISVP2,2013-08-13 02:34:00,
2013-08-12 22:39:00,77.7,72.8,29.90,NE,50,0.0,0.0,85,0.00,,,0.00,WUHU216DAVISVP2,2013-08-13 02:39:00,
2013-08-12 22:44:00,77.7,72.8,29.90,NE,50,0.0,0.0,85,0.00,,,0.00,WUHU216DAVISVP2,2013-08-13 02:44:00,
2013-08-12 22:49:00,77.6,72.8,29.90,NE,50,0.0,0.0,85,0.00,,,0.00,WUHU216DAVISVP2,2013-08-13 02:49:00,
2013-08-12 22:54:00,77.5,73.0,29.90,NE,50,0.0,0.0,86,0.00,,,0.00,WUHU216DAVISVP2,2013-08-13 02:54:00,
2013-08-12 22:59:00,77.4,72.9,29.91,NE,50,0.0,0.0,86,0.00,,,0.00,WUHU216DAVISVP2,2013-08-13 02:59:00,
2013-08-12 23:04:00,77.3,72.8,29.90,NE,50,0.0,0.0,86,0.00,,,0.00,WUHU216DAVISVP2,2013-08-13 03:04:00,
2013-08-12 23:09:00,77.2,73.0,29.90,NE,50,0.0,1.0,87,0.00,,,0.00,WUHU216DAVISVP2,2013-08-13 03:09:00,
2013-08-12 23:14:00,77.2,73.0,29.89,NE,50,0.0,1.0,87,0.00,,,0.00,WUHU216DAVISVP2,2013-08-13 03:14:00,
2013-08-12 23:19:00,77.2,73.0,29.89,NE,50,0.0,1.0,87,0.00,,,0.00,WUHU216DAVISVP2,2013-08-13 03:19:00,
2013-08-12 23:24:00,77.2,73.0,29.89,NE,50,0.0,1.0,87,0.00,,,0.00,WUHU216DAVISVP2,2013-08-13 03:24:00,
2013-08-12 23:29:00,77.1,73.0,29.89,NE,50,0.0,0.0,87,0.00,,,0.00,WUHU216DAVISVP2,2013-08-13 03:29:00,
2013-08-12 23:34:00,77.1,73.3,29.89,NE,50,0.0,0.0,88,0.00,,,0.00,WUHU216DAVISVP2,2013-08-13 03:34:00,
2013-08-12 23:39:00,77.1,73.3,29.89,NE,50,0.0,0.0,88,0.00,,,0.00,WUHU216DAVISVP2,2013-08-13 03:39:00,
2013-08-12 23:44:00,77.1,73.3,29.88,NE,50,0.0,0.0,88,0.00,,,0.00,WUHU216DAVISVP2,2013-08-13 03:44:00,
2013-08-12 23:52:00,77.0,73.2,29.88,NE,50,0.0,0.0,88,0.00,,,0.00,WUHU216DAVISVP2,2013-08-13 03:52:00,